Time;durP1;ratioP1;P1;durP2;ratioP2;P2;SDS_P1;SDS_P2;PMS_P1;PMS_P2;Temp;Humidity;BMP_temperature;BMP_pressure;BME280_temperature;BME280_humidity;BME280_pressure;Samples;Min_cycle;Max_cycle;Signal;HPM_P1;HPM_P2
2023/05/28 00:02:16;;;;;;;7.63;5.85;;;12.20;93.40;;;;;;6253926;28;20179;-80
2023/05/28 00:05:18;;;;;;;7.55;5.07;;;12.20;93.60;;;;;;6254576;28;20139;-81
2023/05/28 00:08:20;;;;;;;12.38;5.88;;;12.10;93.70;;;;;;6254790;28;20054;-80
2023/05/28 00:11:23;;;;;;;10.85;6.15;;;12.10;93.90;;;;;;6254017;28;20053;-81
2023/05/28 00:14:26;;;;;;;10.75;6.72;;;12.10;94.10;;;;;;6252660;28;20042;-81
2023/05/28 00:17:28;;;;;;;10.75;6.50;;;12.10;94.30;;;;;;6252898;28;20045;-81
2023/05/28 00:20:30;;;;;;;13.45;6.78;;;12.00;94.40;;;;;;6254273;28;20053;-81
2023/05/28 00:23:32;;;;;;;8.73;5.75;;;12.00;94.60;;;;;;6254495;28;20136;-81
2023/05/28 00:26:35;;;;;;;13.93;6.65;;;12.00;94.70;;;;;;6285799;28;20056;-81
2023/05/28 00:29:38;;;;;;;11.82;7.20;;;11.90;94.80;;;;;;6285034;28;20075;-81
2023/05/28 00:32:39;;;;;;;8.98;5.13;;;11.90;95.00;;;;;;6284338;28;20055;-81
2023/05/28 00:35:41;;;;;;;10.77;6.20;;;11.90;95.20;;;;;;6281849;28;20071;-81
2023/05/28 00:38:43;;;;;;;9.73;6.07;;;11.90;95.40;;;;;;6281735;28;20052;-81
2023/05/28 00:41:45;;;;;;;12.95;6.93;;;11.80;95.50;;;;;;6280807;28;20045;-81
2023/05/28 00:44:48;;;;;;;12.25;6.75;;;11.80;95.60;;;;;;6254865;28;20492;-81
2023/05/28 00:47:50;;;;;;;7.28;6.10;;;11.80;95.70;;;;;;6254680;28;20050;-80
2023/05/28 00:50:52;;;;;;;10.68;5.88;;;11.80;95.90;;;;;;6254924;28;20495;-80
2023/05/28 00:53:54;;;;;;;14.52;7.40;;;11.80;96.10;;;;;;6252967;28;20049;-80
2023/05/28 00:56:57;;;;;;;10.77;5.45;;;11.90;96.20;;;;;;6263807;28;20041;-80
2023/05/28 01:00:05;;;;;;;12.85;6.45;;;11.90;96.60;;;;;;6277748;28;20091;-80
2023/05/28 01:03:07;;;;;;;11.52;5.30;;;11.90;96.50;;;;;;6276688;28;20187;-81
2023/05/28 01:06:12;;;;;;;9.52;5.60;;;12.00;96.60;;;;;;6277299;28;20545;-80
2023/05/28 01:09:14;;;;;;;9.85;6.43;;;12.00;96.70;;;;;;6276826;28;20056;-80
2023/05/28 01:12:16;;;;;;;12.38;6.28;;;12.10;96.70;;;;;;6277253;28;20045;-80
2023/05/28 01:15:19;;;;;;;10.15;6.07;;;12.10;96.60;;;;;;6277298;28;20430;-80
2023/05/28 01:18:21;;;;;;;11.25;5.65;;;12.20;96.50;;;;;;6273213;28;20056;-80
2023/05/28 01:21:25;;;;;;;9.63;4.75;;;12.20;96.30;;;;;;6274388;28;20049;-81
2023/05/28 01:24:28;;;;;;;10.23;6.28;;;12.20;96.20;;;;;;6280885;28;20045;-81
2023/05/28 01:27:30;;;;;;;13.65;5.40;;;12.20;96.10;;;;;;6282941;28;20086;-81
2023/05/28 01:30:32;;;;;;;9.70;5.72;;;12.20;96.10;;;;;;6282737;28;20418;-81
2023/05/28 01:33:34;;;;;;;12.02;5.95;;;12.20;96.10;;;;;;6284298;28;20534;-81
2023/05/28 01:36:41;;;;;;;8.98;5.28;;;12.20;96.10;;;;;;6295754;28;20059;-80
2023/05/28 01:39:48;;;;;;;10.27;4.75;;;12.20;96.10;;;;;;6293389;28;20051;-80
2023/05/28 01:42:51;;;;;;;8.68;5.53;;;12.20;96.00;;;;;;6285018;28;20052;-80
2023/05/28 01:45:54;;;;;;;10.20;4.00;;;12.20;95.80;;;;;;6283763;28;20052;-80
2023/05/28 01:48:56;;;;;;;8.75;4.72;;;12.20;95.60;;;;;;6284575;28;20044;-81
2023/05/28 01:51:57;;;;;;;9.43;5.07;;;12.30;95.40;;;;;;6285747;28;20051;-81
2023/05/28 01:55:00;;;;;;;8.55;4.78;;;12.30;95.10;;;;;;6286410;28;20052;-81
2023/05/28 01:58:02;;;;;;;5.93;4.32;;;12.30;94.90;;;;;;6285062;28;20055;-81
2023/05/28 02:01:12;;;;;;;7.72;5.32;;;12.30;94.70;;;;;;6286016;28;20049;-81
2023/05/28 02:04:14;;;;;;;7.90;4.63;;;12.30;94.50;;;;;;6290105;28;20044;-81
2023/05/28 02:07:15;;;;;;;9.52;4.97;;;12.30;94.40;;;;;;6280796;28;20057;-80
2023/05/28 02:10:18;;;;;;;8.77;4.70;;;12.30;94.30;;;;;;6279836;28;20179;-80
2023/05/28 02:13:20;;;;;;;8.60;4.47;;;12.30;94.20;;;;;;6280519;28;20060;-81
2023/05/28 02:16:22;;;;;;;6.32;4.35;;;12.30;94.10;;;;;;6279825;28;20049;-80
2023/05/28 02:19:24;;;;;;;14.35;5.25;;;12.30;94.10;;;;;;6280434;28;20049;-80
2023/05/28 02:22:26;;;;;;;11.60;5.22;;;12.30;94.10;;;;;;6279309;28;20049;-80
2023/05/28 02:25:29;;;;;;;12.50;5.93;;;12.30;94.00;;;;;;6272711;28;20052;-80
2023/05/28 02:28:31;;;;;;;9.25;4.68;;;12.30;93.90;;;;;;6273909;28;20053;-80
2023/05/28 02:31:32;;;;;;;16.88;6.90;;;12.30;93.90;;;;;;6270569;28;20056;-81
2023/05/28 02:34:34;;;;;;;11.20;4.63;;;12.30;93.80;;;;;;6272618;28;20045;-81
2023/05/28 02:37:36;;;;;;;9.63;4.50;;;12.30;93.70;;;;;;6271007;28;20056;-81
2023/05/28 02:40:39;;;;;;;6.50;4.72;;;12.20;93.70;;;;;;6272265;28;20049;-81
2023/05/28 02:43:40;;;;;;;11.10;6.10;;;12.20;93.70;;;;;;6271705;28;20060;-81
2023/05/28 02:46:42;;;;;;;7.85;4.82;;;12.20;93.70;;;;;;6281391;28;20059;-80
2023/05/28 02:49:44;;;;;;;10.23;4.50;;;12.20;93.70;;;;;;6286079;28;20045;-81
2023/05/28 02:52:46;;;;;;;9.60;4.43;;;12.20;93.70;;;;;;6282678;28;20049;-81
2023/05/28 02:55:49;;;;;;;11.75;5.00;;;12.20;93.70;;;;;;6281625;28;20057;-81
2023/05/28 02:58:51;;;;;;;16.25;5.47;;;12.20;93.70;;;;;;6257746;28;20633;-80
2023/05/28 03:01:53;;;;;;;13.55;4.78;;;12.20;93.70;;;;;;6274761;28;20041;-80
2023/05/28 03:04:54;;;;;;;15.48;5.32;;;12.10;93.70;;;;;;6277266;28;20052;-80
2023/05/28 03:07:56;;;;;;;8.43;5.07;;;12.10;93.70;;;;;;6276325;28;20052;-80
2023/05/28 03:10:59;;;;;;;7.72;4.38;;;12.00;93.80;;;;;;6276092;28;20059;-80
2023/05/28 03:14:01;;;;;;;9.95;5.47;;;12.00;93.80;;;;;;6275812;28;20068;-80
2023/05/28 03:17:02;;;;;;;10.93;5.43;;;12.00;93.80;;;;;;6276132;28;20534;-80
2023/05/28 03:20:06;;;;;;;11.85;5.18;;;12.00;93.90;;;;;;6275652;28;20045;-80
2023/05/28 03:23:08;;;;;;;8.98;5.13;;;12.00;94.00;;;;;;6276328;28;20132;-80
2023/05/28 03:26:12;;;;;;;12.52;5.30;;;11.90;94.10;;;;;;6275307;28;20044;-80
2023/05/28 03:29:13;;;;;;;12.73;4.95;;;11.90;94.20;;;;;;6275003;28;20499;-80
2023/05/28 03:32:15;;;;;;;9.15;5.13;;;11.90;94.30;;;;;;6275292;28;20045;-80
2023/05/28 03:35:17;;;;;;;6.82;4.88;;;11.90;94.40;;;;;;6275218;28;20049;-80
2023/05/28 03:38:19;;;;;;;10.25;5.38;;;11.90;94.50;;;;;;6274337;28;20052;-80
2023/05/28 03:41:22;;;;;;;11.00;5.07;;;11.90;94.50;;;;;;6274942;28;20530;-80
2023/05/28 03:44:24;;;;;;;7.40;5.18;;;11.90;94.50;;;;;;6275077;28;20060;-80
2023/05/28 03:47:27;;;;;;;8.55;6.03;;;11.90;94.80;;;;;;6274551;28;20060;-79
2023/05/28 03:50:28;;;;;;;9.90;4.55;;;12.00;94.60;;;;;;6274279;28;20517;-80
2023/05/28 03:53:30;;;;;;;13.73;5.95;;;12.00;94.60;;;;;;6274550;28;20415;-81
2023/05/28 03:56:35;;;;;;;10.82;5.03;;;12.00;94.70;;;;;;6282533;28;20033;-79
2023/05/28 03:59:37;;;;;;;8.48;4.70;;;12.10;94.80;;;;;;6282725;28;20434;-80
2023/05/28 04:02:39;;;;;;;9.63;5.32;;;12.20;94.70;;;;;;6275589;28;20052;-80
2023/05/28 04:05:41;;;;;;;8.95;4.75;;;12.30;94.60;;;;;;6282965;28;20052;-80
2023/05/28 04:08:43;;;;;;;6.97;4.53;;;12.30;94.50;;;;;;6304066;28;20072;-80
2023/05/28 04:11:46;;;;;;;7.82;4.63;;;12.40;94.60;;;;;;6282685;28;20049;-81
2023/05/28 04:14:47;;;;;;;17.13;5.00;;;12.40;94.60;;;;;;6279885;28;20045;-81
2023/05/28 04:17:49;;;;;;;15.55;5.10;;;12.50;94.70;;;;;;6278676;28;20049;-81
2023/05/28 04:20:51;;;;;;;14.00;5.25;;;12.60;94.90;;;;;;6277818;28;20215;-81
2023/05/28 04:23:52;;;;;;;10.90;5.72;;;12.80;95.30;;;;;;6277989;28;20059;-81
2023/05/28 04:26:56;;;;;;;13.27;6.38;;;13.20;95.30;;;;;;6276954;28;20049;-82
2023/05/28 04:29:58;;;;;;;5.97;4.75;;;13.60;94.90;;;;;;6265466;28;20045;-82
2023/05/28 04:33:00;;;;;;;12.93;5.55;;;14.00;94.40;;;;;;6252449;28;20048;-82
2023/05/28 04:36:03;;;;;;;9.85;5.43;;;14.40;93.50;;;;;;6251554;28;20045;-80
2023/05/28 04:39:05;;;;;;;12.63;4.63;;;14.60;93.20;;;;;;6252255;28;20046;-81
2023/05/28 04:42:09;;;;;;;10.75;4.25;;;15.00;93.20;;;;;;6251135;28;20053;-82
2023/05/28 04:45:11;;;;;;;12.52;5.25;;;15.50;92.40;;;;;;6252236;28;20519;-81
2023/05/28 04:48:13;;;;;;;10.35;4.93;;;16.00;91.60;;;;;;6252462;28;20056;-81
2023/05/28 04:51:15;;;;;;;9.13;5.47;;;16.50;90.70;;;;;;6251558;28;20045;-81
2023/05/28 04:54:16;;;;;;;13.40;5.57;;;17.00;89.70;;;;;;6252515;28;20052;-81
2023/05/28 04:57:19;;;;;;;10.57;6.22;;;17.50;87.80;;;;;;6296803;28;20053;-80
2023/05/28 05:00:21;;;;;;;8.05;4.28;;;18.00;85.90;;;;;;6291859;28;20052;-83
2023/05/28 05:03:23;;;;;;;8.65;4.90;;;18.60;83.80;;;;;;6278111;28;20054;-82
2023/05/28 05:06:24;;;;;;;8.27;5.05;;;19.10;81.70;;;;;;6265834;28;20055;-83
2023/05/28 05:09:27;;;;;;;7.38;4.72;;;19.50;79.30;;;;;;6257101;28;20053;-82
2023/05/28 05:12:30;;;;;;;8.40;4.85;;;19.80;77.40;;;;;;6255830;28;20050;-83
2023/05/28 05:15:32;;;;;;;6.28;4.78;;;20.10;75.90;;;;;;6256608;28;20155;-83
2023/05/28 05:18:34;;;;;;;8.60;4.82;;;20.40;74.90;;;;;;6230186;28;20174;-83
2023/05/28 05:21:35;;;;;;;7.22;4.55;;;20.80;73.30;;;;;;6230037;28;20054;-81
2023/05/28 05:24:37;;;;;;;8.35;5.68;;;21.00;71.70;;;;;;6230744;28;20052;-82
2023/05/28 05:27:40;;;;;;;9.07;4.07;;;21.40;70.80;;;;;;6229734;28;20452;-83
2023/05/28 05:30:42;;;;;;;15.48;5.43;;;21.80;69.30;;;;;;6230962;28;20057;-83
2023/05/28 05:33:44;;;;;;;6.13;4.65;;;22.00;67.70;;;;;;6228674;28;20053;-83
2023/05/28 05:36:45;;;;;;;11.52;4.82;;;21.90;67.00;;;;;;6227714;28;20049;-83
2023/05/28 05:39:47;;;;;;;6.15;3.60;;;22.20;66.70;;;;;;6227347;28;20046;-83
2023/05/28 05:42:50;;;;;;;9.73;4.32;;;22.70;65.40;;;;;;6246505;23;20076;-79
2023/05/28 05:45:52;;;;;;;13.02;4.07;;;23.00;64.40;;;;;;6266429;28;20159;-80
2023/05/28 05:48:53;;;;;;;8.43;4.45;;;23.20;63.40;;;;;;6272556;28;20044;-79
2023/05/28 05:51:55;;;;;;;9.43;4.05;;;23.60;62.60;;;;;;6271427;28;20363;-81
2023/05/28 05:54:57;;;;;;;11.65;4.72;;;24.00;61.40;;;;;;6272459;28;20434;-80
2023/05/28 05:58:01;;;;;;;14.90;5.63;;;24.20;59.80;;;;;;6272971;28;20045;-80
2023/05/28 06:01:03;;;;;;;15.68;4.68;;;24.20;59.10;;;;;;6272559;28;20048;-80
2023/05/28 06:04:05;;;;;;;12.32;4.03;;;24.10;58.70;;;;;;6272940;28;20042;-80
2023/05/28 06:07:07;;;;;;;9.43;5.30;;;24.20;58.70;;;;;;6272856;28;20052;-80
2023/05/28 06:10:08;;;;;;;4.57;3.65;;;24.30;57.20;;;;;;6271303;28;20052;-80
2023/05/28 06:13:12;;;;;;;10.70;4.35;;;24.30;57.40;;;;;;6272993;28;20402;-80
2023/05/28 06:16:14;;;;;;;6.30;4.05;;;24.60;56.90;;;;;;6272658;28;20047;-80
2023/05/28 06:19:16;;;;;;;7.40;4.05;;;25.00;55.80;;;;;;6273015;28;20048;-80
2023/05/28 06:22:18;;;;;;;7.75;4.68;;;25.10;55.40;;;;;;6272871;28;20103;-81
2023/05/28 06:25:21;;;;;;;7.57;3.97;;;25.40;54.90;;;;;;6272237;28;20052;-80
2023/05/28 06:28:24;;;;;;;7.88;4.93;;;25.70;54.70;;;;;;6294146;28;20098;-81
2023/05/28 06:31:26;;;;;;;11.05;4.45;;;26.00;53.60;;;;;;6271183;28;20067;-81
2023/05/28 06:34:27;;;;;;;8.05;4.38;;;26.30;53.30;;;;;;6277104;28;20072;-79
2023/05/28 06:37:29;;;;;;;6.30;4.47;;;26.40;52.70;;;;;;6278170;28;20055;-81
2023/05/28 06:40:31;;;;;;;10.95;5.63;;;26.60;52.10;;;;;;6276030;28;20131;-80
2023/05/28 06:43:34;;;;;;;8.25;4.18;;;26.30;51.40;;;;;;6269187;28;20135;-80
2023/05/28 06:46:36;;;;;;;8.40;4.20;;;25.30;51.80;;;;;;6270968;28;20056;-79
2023/05/28 06:49:37;;;;;;;5.90;3.83;;;24.40;52.90;;;;;;6265380;28;20068;-80
2023/05/28 06:52:39;;;;;;;7.60;4.25;;;23.70;54.00;;;;;;6274610;28;20489;-80
2023/05/28 06:55:41;;;;;;;10.50;5.03;;;23.10;55.00;;;;;;6261858;28;20048;-79
2023/05/28 06:58:45;;;;;;;5.72;4.03;;;22.70;56.30;;;;;;6266146;28;20049;-79
2023/05/28 07:01:46;;;;;;;8.70;4.53;;;22.40;56.30;;;;;;6267278;28;20415;-79
2023/05/28 07:04:48;;;;;;;7.80;4.35;;;21.90;56.50;;;;;;6265078;28;20049;-80
2023/05/28 07:07:50;;;;;;;6.13;4.60;;;21.40;57.40;;;;;;6273667;28;20140;-80
2023/05/28 07:10:52;;;;;;;5.90;3.30;;;21.20;58.50;;;;;;6269494;28;20139;-80
2023/05/28 07:13:55;;;;;;;8.85;5.60;;;21.10;59.20;;;;;;6268468;28;20046;-79
2023/05/28 07:16:57;;;;;;;8.02;3.95;;;21.30;59.40;;;;;;6267759;28;20065;-78
2023/05/28 07:19:58;;;;;;;9.27;3.88;;;21.20;58.90;;;;;;6264312;28;20041;-80
2023/05/28 07:23:00;;;;;;;9.88;4.43;;;21.10;59.50;;;;;;6275472;28;20049;-79
2023/05/28 07:26:02;;;;;;;6.32;3.78;;;21.00;59.90;;;;;;6266330;28;20064;-80
2023/05/28 07:29:05;;;;;;;10.00;4.70;;;20.90;60.20;;;;;;6267042;28;20053;-81
2023/05/28 07:32:07;;;;;;;13.43;4.85;;;21.00;60.60;;;;;;6265461;28;20146;-81
2023/05/28 07:35:09;;;;;;;12.10;4.70;;;21.10;60.40;;;;;;6270418;28;20495;-81
2023/05/28 07:38:12;;;;;;;13.00;4.88;;;21.30;60.20;;;;;;6272439;28;20063;-81
2023/05/28 07:41:14;;;;;;;6.35;3.78;;;21.20;60.00;;;;;;6262207;28;20530;-79
2023/05/28 07:44:17;;;;;;;11.73;4.88;;;21.20;60.30;;;;;;6259385;28;20156;-80
2023/05/28 07:47:19;;;;;;;8.35;4.38;;;21.40;60.30;;;;;;6261218;28;20052;-78
2023/05/28 07:50:21;;;;;;;9.65;4.38;;;21.50;60.50;;;;;;6257208;28;20041;-80
2023/05/28 07:53:23;;;;;;;8.50;5.05;;;21.60;60.00;;;;;;6263013;28;20064;-79
2023/05/28 07:56:26;;;;;;;10.65;4.75;;;21.60;60.10;;;;;;6263594;28;20041;-78
2023/05/28 07:59:29;;;;;;;7.70;4.20;;;21.80;60.00;;;;;;6258276;28;20048;-78
2023/05/28 08:02:30;;;;;;;9.95;4.00;;;22.00;59.80;;;;;;6256603;28;20045;-79
2023/05/28 08:05:32;;;;;;;4.97;3.90;;;22.10;59.70;;;;;;6260976;28;20052;-79
2023/05/28 08:08:34;;;;;;;9.18;4.18;;;22.30;59.60;;;;;;6267688;28;20053;-78
2023/05/28 08:11:35;;;;;;;6.03;4.70;;;22.30;59.20;;;;;;6270556;28;20057;-79
2023/05/28 08:14:41;;;;;;;8.43;4.22;;;22.30;58.90;;;;;;6271129;28;20049;-79
2023/05/28 08:17:43;;;;;;;11.57;4.72;;;22.40;59.20;;;;;;6269563;28;20114;-79
2023/05/28 08:20:45;;;;;;;7.40;5.53;;;22.40;58.80;;;;;;6271714;28;20048;-80
2023/05/28 08:23:46;;;;;;;5.53;3.78;;;22.30;59.00;;;;;;6272111;28;20072;-80
2023/05/28 08:26:48;;;;;;;9.40;5.13;;;22.50;59.50;;;;;;6267316;28;20063;-80
2023/05/28 08:29:51;;;;;;;8.80;4.50;;;22.70;59.20;;;;;;6268515;28;20041;-79
2023/05/28 08:32:53;;;;;;;9.65;4.30;;;22.90;59.10;;;;;;6274772;28;20084;-78
2023/05/28 08:35:54;;;;;;;7.40;4.57;;;22.90;59.90;;;;;;6271751;28;20049;-79
2023/05/28 08:38:56;;;;;;;8.27;5.50;;;22.80;58.70;;;;;;6268170;28;20052;-79
2023/05/28 08:41:58;;;;;;;11.35;5.35;;;22.50;58.60;;;;;;6268576;28;20104;-79
2023/05/28 08:45:01;;;;;;;7.78;5.35;;;22.40;58.80;;;;;;6262199;28;20041;-80
2023/05/28 08:48:05;;;;;;;7.25;4.40;;;22.60;59.10;;;;;;6269087;28;20049;-79
2023/05/28 08:51:08;;;;;;;6.22;4.70;;;22.90;58.60;;;;;;6269526;28;20072;-79
2023/05/28 08:54:10;;;;;;;8.25;4.15;;;22.90;58.40;;;;;;6266360;28;20040;-78
2023/05/28 08:57:12;;;;;;;7.70;6.00;;;23.10;58.40;;;;;;6269554;28;20502;-78
2023/05/28 09:00:16;;;;;;;7.90;5.25;;;23.40;58.50;;;;;;6265367;28;20038;-81
2023/05/28 09:03:18;;;;;;;8.30;4.72;;;23.80;58.40;;;;;;6270874;28;20167;-79
2023/05/28 09:06:22;;;;;;;15.20;6.45;;;24.10;57.30;;;;;;6274371;28;20044;-80
2023/05/28 09:09:26;;;;;;;9.15;4.55;;;24.10;57.10;;;;;;6268624;28;20441;-80
2023/05/28 09:12:29;;;;;;;6.68;4.68;;;24.40;56.70;;;;;;6266705;28;20044;-80
2023/05/28 09:15:34;;;;;;;6.85;4.63;;;24.50;56.40;;;;;;6273056;28;20045;-80
2023/05/28 09:18:39;;;;;;;5.43;4.72;;;24.60;56.30;;;;;;6266858;28;20056;-80
2023/05/28 09:21:53;;;;;;;10.55;4.30;;;24.80;55.30;;;;;;6276337;28;20045;-79
2023/05/28 09:24:55;;;;;;;6.53;4.13;;;24.60;54.90;;;;;;6268011;28;20143;-79
2023/05/28 09:27:59;;;;;;;8.68;4.88;;;24.50;54.90;;;;;;6265894;28;20053;-79
2023/05/28 09:31:06;;;;;;;7.88;4.88;;;24.50;55.10;;;;;;6276799;28;20510;-80
2023/05/28 09:34:07;;;;;;;9.98;4.38;;;24.70;55.20;;;;;;6272823;28;20044;-79
2023/05/28 09:37:09;;;;;;;9.10;5.40;;;25.00;55.50;;;;;;6272149;28;20055;-80
2023/05/28 09:40:11;;;;;;;9.23;4.38;;;25.20;54.60;;;;;;6271306;28;20056;-78
2023/05/28 09:43:13;;;;;;;10.95;5.15;;;25.20;54.10;;;;;;6273258;28;20053;-78
2023/05/28 09:46:16;;;;;;;12.75;5.38;;;25.50;54.20;;;;;;6268077;28;20526;-79
2023/05/28 09:49:18;;;;;;;10.15;4.25;;;25.80;53.60;;;;;;6271884;28;20057;-81
2023/05/28 09:52:21;;;;;;;6.43;4.07;;;26.00;53.60;;;;;;6267639;28;20059;-79
2023/05/28 09:55:26;;;;;;;7.07;4.38;;;26.20;53.20;;;;;;6268226;28;20178;-80
2023/05/28 09:58:34;;;;;;;8.82;5.55;;;26.50;52.90;;;;;;6275543;28;20040;-80
2023/05/28 10:01:41;;;;;;;8.68;3.83;;;26.60;52.90;;;;;;6269346;28;20052;-79
2023/05/28 10:04:45;;;;;;;7.30;4.75;;;26.80;52.20;;;;;;6275426;28;20072;-80
2023/05/28 10:07:49;;;;;;;7.68;4.63;;;26.60;51.90;;;;;;6273462;28;20051;-80
2023/05/28 10:10:54;;;;;;;14.38;4.15;;;26.60;51.70;;;;;;6267429;28;20041;-81
2023/05/28 10:13:57;;;;;;;6.57;4.50;;;26.60;51.90;;;;;;6269107;28;20122;-81
2023/05/28 10:17:00;;;;;;;9.93;4.00;;;27.00;50.90;;;;;;6272207;28;20045;-79
2023/05/28 10:20:04;;;;;;;8.25;5.03;;;27.00;50.30;;;;;;6265946;28;20053;-81
2023/05/28 10:23:06;;;;;;;15.52;6.53;;;26.90;50.00;;;;;;6259839;28;20057;-80
2023/05/28 10:26:08;;;;;;;5.57;4.10;;;26.90;49.30;;;;;;6258014;28;20096;-79
2023/05/28 10:29:10;;;;;;;10.30;4.93;;;27.00;48.80;;;;;;6257467;28;20046;-80
2023/05/28 10:32:16;;;;;;;10.48;5.10;;;27.10;48.30;;;;;;6254966;28;20045;-80
2023/05/28 10:35:18;;;;;;;7.43;4.38;;;27.20;48.10;;;;;;6262036;28;20151;-80
2023/05/28 10:38:20;;;;;;;7.15;4.88;;;27.10;48.30;;;;;;6260178;28;20570;-80
2023/05/28 10:41:22;;;;;;;7.00;3.97;;;27.00;48.40;;;;;;6260597;28;20056;-79
2023/05/28 10:44:24;;;;;;;9.75;4.07;;;27.20;48.20;;;;;;6256950;28;20033;-79
2023/05/28 10:47:33;;;;;;;8.38;3.90;;;27.20;48.30;;;;;;6254269;28;20890;-79
2023/05/28 10:51:00;;;;;;;8.15;4.47;;;27.50;47.30;;;;;;6262250;28;20057;-80
2023/05/28 10:54:15;;;;;;;6.85;4.20;;;27.70;46.40;;;;;;6271285;28;20045;-81
2023/05/28 10:57:17;;;;;;;11.63;4.00;;;27.90;46.80;;;;;;6270101;28;20037;-80
2023/05/28 11:00:24;;;;;;;5.90;3.88;;;28.10;46.60;;;;;;6264259;28;20135;-80
2023/05/28 11:03:55;;;;;;;6.75;5.32;;;28.00;46.80;;;;;;6271291;28;20068;-82
2023/05/28 11:06:57;;;;;;;6.82;4.95;;;28.20;46.70;;;;;;6245490;28;20052;-80
2023/05/28 11:10:00;;;;;;;6.82;4.15;;;28.20;46.60;;;;;;6271930;28;20418;-81
2023/05/28 11:13:02;;;;;;;9.27;4.38;;;28.50;46.20;;;;;;6269473;28;22264;-81
2023/05/28 11:16:08;;;;;;;5.97;3.72;;;28.50;45.50;;;;;;6269540;28;20041;-78
2023/05/28 11:19:12;;;;;;;9.95;4.40;;;28.40;45.60;;;;;;6267672;28;20057;-79
2023/05/28 11:22:14;;;;;;;8.43;4.10;;;28.50;46.00;;;;;;6273517;28;20434;-79
2023/05/28 11:25:16;;;;;;;10.80;4.97;;;28.80;45.60;;;;;;6274330;28;20053;-77
2023/05/28 11:28:19;;;;;;;7.47;3.70;;;28.70;45.50;;;;;;6272071;28;20049;-78
2023/05/28 11:31:21;;;;;;;8.60;4.00;;;28.70;45.60;;;;;;6272141;28;20077;-77
2023/05/28 11:34:25;;;;;;;9.60;4.60;;;28.60;45.40;;;;;;6272222;28;20037;-79
2023/05/28 11:37:29;;;;;;;8.60;4.50;;;28.70;45.60;;;;;;6273638;28;20067;-79
2023/05/28 11:40:35;;;;;;;7.53;3.58;;;28.70;45.30;;;;;;6267200;28;20060;-77
2023/05/28 11:43:37;;;;;;;13.18;4.38;;;28.70;45.40;;;;;;6270252;28;20131;-81
2023/05/28 11:46:38;;;;;;;7.05;4.07;;;28.90;45.00;;;;;;6268007;28;20045;-79
2023/05/28 11:49:42;;;;;;;9.30;4.47;;;28.60;44.70;;;;;;6332327;22;20677;-81
2023/05/28 11:52:44;;;;;;;13.80;3.97;;;28.50;44.80;;;;;;6327577;28;20043;-82
2023/05/28 11:55:47;;;;;;;10.68;5.55;;;28.60;44.60;;;;;;6328144;28;20047;-81
2023/05/28 11:58:49;;;;;;;7.30;4.18;;;28.70;44.80;;;;;;6309418;28;20050;-81
2023/05/28 12:01:50;;;;;;;5.40;4.07;;;29.00;44.50;;;;;;6301367;28;20055;-81
2023/05/28 12:04:59;;;;;;;8.57;4.57;;;29.10;44.40;;;;;;6297947;28;20047;-82
2023/05/28 12:08:01;;;;;;;6.65;3.47;;;29.00;44.20;;;;;;6298231;28;20524;-82
2023/05/28 12:11:03;;;;;;;7.55;3.65;;;29.30;44.30;;;;;;6305387;28;20051;-82
2023/05/28 12:14:12;;;;;;;5.15;3.60;;;29.60;44.10;;;;;;6306017;28;20131;-80
2023/05/28 12:17:14;;;;;;;8.35;4.32;;;29.60;43.50;;;;;;6299334;28;20513;-82
2023/05/28 12:20:33;;;;;;;10.73;4.18;;;29.80;43.60;;;;;;6303899;28;20047;-83
2023/05/28 12:23:35;;;;;;;7.28;3.63;;;30.40;43.40;;;;;;6299109;28;20046;-82
2023/05/28 12:26:36;;;;;;;8.80;4.72;;;30.60;42.80;;;;;;6301922;28;20051;-82
2023/05/28 12:29:38;;;;;;;5.65;3.83;;;30.80;42.70;;;;;;6298278;28;20050;-81
2023/05/28 12:32:40;;;;;;;5.88;3.88;;;31.20;42.30;;;;;;6297756;28;20051;-80
2023/05/28 12:35:43;;;;;;;10.98;4.03;;;31.20;41.70;;;;;;6300023;28;20036;-80
2023/05/28 12:38:44;;;;;;;7.47;4.38;;;31.20;41.20;;;;;;6296770;28;20499;-81
2023/05/28 12:41:46;;;;;;;7.07;4.15;;;31.10;41.30;;;;;;6297377;28;20403;-79
2023/05/28 12:44:48;;;;;;;6.47;4.70;;;31.30;41.40;;;;;;6294698;28;20033;-80
2023/05/28 12:47:50;;;;;;;8.10;4.15;;;31.10;40.90;;;;;;6296454;28;20391;-80
2023/05/28 12:50:53;;;;;;;7.32;3.80;;;30.80;42.00;;;;;;6298899;28;20532;-79
2023/05/28 12:53:54;;;;;;;8.90;3.72;;;30.80;41.30;;;;;;6295157;28;20068;-82
2023/05/28 12:56:56;;;;;;;10.27;4.32;;;30.90;41.30;;;;;;6296116;28;20040;-79
2023/05/28 12:59:58;;;;;;;8.48;3.95;;;31.40;40.90;;;;;;6295553;28;20051;-80
2023/05/28 13:03:02;;;;;;;6.78;3.50;;;31.30;40.50;;;;;;6284671;28;20045;-80
2023/05/28 13:06:07;;;;;;;8.27;4.10;;;31.50;40.40;;;;;;6288304;28;20060;-80
2023/05/28 13:09:11;;;;;;;8.15;3.63;;;31.50;41.00;;;;;;6290900;28;20041;-81
2023/05/28 13:12:13;;;;;;;7.30;4.00;;;31.80;39.90;;;;;;6283675;28;20049;-80
2023/05/28 13:15:15;;;;;;;8.07;3.42;;;31.90;39.10;;;;;;6286870;28;20044;-81
2023/05/28 13:18:16;;;;;;;7.57;3.22;;;31.70;39.20;;;;;;6285687;28;20053;-81
2023/05/28 13:21:19;;;;;;;8.05;4.88;;;31.80;39.50;;;;;;6284060;28;20056;-79
2023/05/28 13:24:21;;;;;;;7.40;3.55;;;32.00;39.10;;;;;;6280764;28;20048;-83
2023/05/28 13:27:23;;;;;;;8.93;3.30;;;32.10;39.20;;;;;;6288919;28;20486;-80
2023/05/28 13:30:25;;;;;;;6.18;3.65;;;32.00;38.70;;;;;;6298713;28;20037;-81
2023/05/28 13:33:26;;;;;;;5.43;2.92;;;31.60;39.40;;;;;;6297337;28;20036;-81
2023/05/28 13:36:30;;;;;;;6.22;3.55;;;31.80;39.60;;;;;;6297607;28;20048;-81
2023/05/28 13:39:32;;;;;;;6.82;3.60;;;31.80;38.70;;;;;;6299396;28;20044;-80
2023/05/28 13:42:34;;;;;;;7.88;4.47;;;31.60;38.30;;;;;;6299862;28;20056;-81
2023/05/28 13:45:36;;;;;;;6.93;4.22;;;31.50;38.10;;;;;;6300191;28;20052;-80
2023/05/28 13:48:38;;;;;;;5.20;3.70;;;31.60;38.00;;;;;;6301594;28;20045;-79
2023/05/28 13:51:41;;;;;;;5.53;3.90;;;31.50;38.30;;;;;;6299046;28;21864;-81
2023/05/28 13:54:43;;;;;;;7.88;3.63;;;31.50;38.70;;;;;;6297663;28;20627;-81
2023/05/28 13:57:45;;;;;;;10.38;4.10;;;31.50;38.60;;;;;;6292584;28;20048;-80
2023/05/28 14:00:47;;;;;;;6.30;3.80;;;31.20;37.70;;;;;;6298869;28;20044;-79
2023/05/28 14:03:48;;;;;;;10.23;4.05;;;30.80;38.20;;;;;;6293884;28;20044;-80
2023/05/28 14:06:51;;;;;;;10.38;4.50;;;30.70;38.30;;;;;;6291538;28;20040;-80
2023/05/28 14:09:53;;;;;;;5.93;3.15;;;30.90;38.20;;;;;;6296025;28;20993;-78
2023/05/28 14:12:55;;;;;;;5.85;4.70;;;31.00;38.00;;;;;;6291919;28;20059;-78
2023/05/28 14:15:57;;;;;;;7.80;3.72;;;30.80;38.40;;;;;;6297940;28;20061;-78
2023/05/28 14:18:58;;;;;;;6.25;3.42;;;30.70;38.20;;;;;;6296720;28;20497;-80
2023/05/28 14:22:02;;;;;;;6.13;4.53;;;30.30;38.30;;;;;;6294685;28;20441;-78
2023/05/28 14:25:04;;;;;;;10.23;4.63;;;30.10;38.40;;;;;;6294412;28;20478;-80
2023/05/28 14:28:06;;;;;;;7.07;3.95;;;29.90;38.50;;;;;;6291096;28;20048;-78
2023/05/28 14:31:07;;;;;;;7.25;4.00;;;29.90;38.20;;;;;;6298635;28;20053;-79
2023/05/28 14:34:09;;;;;;;8.88;3.80;;;29.80;37.60;;;;;;6301535;28;20067;-81
2023/05/28 14:37:12;;;;;;;4.25;3.35;;;29.80;37.70;;;;;;6298288;28;20091;-82
2023/05/28 14:40:14;;;;;;;6.60;4.65;;;29.70;37.70;;;;;;6298436;28;20041;-81
2023/05/28 14:43:15;;;;;;;8.18;4.55;;;29.70;37.70;;;;;;6292481;28;20053;-80
2023/05/28 14:46:17;;;;;;;6.93;4.07;;;29.70;37.00;;;;;;6288773;28;20052;-80
2023/05/28 14:49:19;;;;;;;9.10;4.22;;;29.30;37.00;;;;;;6281982;28;20534;-78
2023/05/28 14:52:24;;;;;;;7.63;4.72;;;29.30;36.80;;;;;;6288860;28;20044;-82
2023/05/28 14:55:26;;;;;;;5.65;4.78;;;29.20;37.10;;;;;;6293092;28;20064;-78
2023/05/28 14:58:29;;;;;;;8.68;5.15;;;29.20;37.60;;;;;;6302225;28;20437;-78
2023/05/28 15:01:30;;;;;;;10.90;6.47;;;29.30;37.80;;;;;;6299799;28;20051;-81
2023/05/28 15:04:32;;;;;;;7.38;5.43;;;29.50;38.00;;;;;;6326455;28;20108;-84
2023/05/28 15:07:35;;;;;;;8.60;5.22;;;29.80;38.00;;;;;;6307480;28;20048;-79
2023/05/28 15:10:37;;;;;;;6.03;4.18;;;29.90;38.00;;;;;;6305809;28;20044;-83
2023/05/28 15:13:39;;;;;;;7.50;4.13;;;29.90;38.20;;;;;;6304607;28;20055;-82
2023/05/28 15:16:41;;;;;;;8.38;5.18;;;30.00;38.60;;;;;;6310167;28;20047;-84
2023/05/28 15:19:43;;;;;;;9.77;5.75;;;30.00;38.90;;;;;;6305133;28;21496;-83
2023/05/28 15:22:46;;;;;;;7.03;5.10;;;30.00;39.10;;;;;;6303975;28;20097;-81
2023/05/28 15:25:48;;;;;;;7.07;5.03;;;29.60;38.90;;;;;;6306228;28;20036;-80
2023/05/28 15:28:49;;;;;;;10.05;5.18;;;29.50;39.00;;;;;;6298436;28;20060;-79
2023/05/28 15:31:52;;;;;;;7.35;5.35;;;29.60;38.70;;;;;;6304729;28;20053;-82
2023/05/28 15:34:54;;;;;;;16.38;7.72;;;29.70;38.70;;;;;;6304410;28;20052;-83
2023/05/28 15:37:58;;;;;;;9.30;5.35;;;29.40;38.80;;;;;;6306743;28;20097;-81
2023/05/28 15:40:59;;;;;;;7.97;6.28;;;29.40;39.40;;;;;;6289512;28;20076;-84
2023/05/28 15:44:01;;;;;;;8.85;6.07;;;29.40;39.40;;;;;;6281890;28;20057;-84
2023/05/28 15:47:03;;;;;;;11.52;5.13;;;29.40;39.30;;;;;;6283876;28;20044;-83